Time;durP1;ratioP1;P1;durP2;ratioP2;P2;SDS_P1;SDS_P2;PMS_P1;PMS_P2;Temp;Humidity;BMP_temperature;BMP_pressure;BME280_temperature;BME280_humidity;BME280_pressure;Samples;Min_cycle;Max_cycle;Signal;HPM_P1;HPM_P2
2021/07/13 00:00:56;;;;;;;6.93;6.32;;;22.30;90.90;;;;;;5060917;28;20182;-92
2021/07/13 00:03:22;;;;;;;7.28;6.68;;;22.40;90.60;;;;;;5062353;28;20234;-92
2021/07/13 00:05:48;;;;;;;6.88;6.20;;;22.40;91.20;;;;;;5062861;28;20200;-92
2021/07/13 00:08:14;;;;;;;7.35;6.75;;;22.30;90.90;;;;;;5063320;28;20717;-92
2021/07/13 00:10:43;;;;;;;7.72;7.03;;;22.30;90.90;;;;;;5064002;28;20188;-93
2021/07/13 00:13:09;;;;;;;7.68;6.88;;;22.30;91.10;;;;;;5044377;28;20184;-92
2021/07/13 00:15:38;;;;;;;8.30;7.32;;;22.10;92.20;;;;;;5042294;28;20232;-91
2021/07/13 00:18:05;;;;;;;11.27;7.68;;;21.80;94.30;;;;;;5042440;28;20268;-92
2021/07/13 00:20:32;;;;;;;8.07;7.30;;;21.70;95.10;;;;;;5041998;28;20629;-92
2021/07/13 00:22:58;;;;;;;8.23;7.53;;;21.70;95.40;;;;;;5043295;28;20240;-92
2021/07/13 00:25:26;;;;;;;7.70;6.90;;;21.70;94.40;;;;;;5043730;28;20638;-92
2021/07/13 00:27:52;;;;;;;7.43;6.72;;;21.80;93.30;;;;;;5042750;28;20180;-92
2021/07/13 00:30:19;;;;;;;6.90;6.20;;;21.90;92.50;;;;;;5043257;28;20199;-92
2021/07/13 00:32:46;;;;;;;7.43;6.82;;;22.00;92.20;;;;;;5041921;28;20197;-92
2021/07/13 00:35:12;;;;;;;7.13;6.43;;;22.10;92.20;;;;;;5058194;28;20204;-92
2021/07/13 00:37:41;;;;;;;8.02;6.53;;;22.10;91.80;;;;;;5062174;28;20277;-92
2021/07/13 00:40:09;;;;;;;7.03;6.32;;;22.20;91.70;;;;;;5062964;28;20172;-92
2021/07/13 00:42:34;;;;;;;7.97;7.20;;;22.20;90.90;;;;;;5062432;28;20601;-92
2021/07/13 00:45:00;;;;;;;7.20;6.55;;;22.20;91.50;;;;;;5062669;28;20212;-92
2021/07/13 00:47:27;;;;;;;7.80;7.10;;;22.10;91.70;;;;;;5062990;28;20180;-92
2021/07/13 00:49:53;;;;;;;7.00;6.40;;;22.20;91.50;;;;;;5057173;28;20195;-91
2021/07/13 00:52:20;;;;;;;7.63;7.03;;;22.20;90.10;;;;;;5042164;28;20208;-92
2021/07/13 00:54:50;;;;;;;7.25;6.60;;;22.30;90.50;;;;;;5042238;28;20244;-92
2021/07/13 00:57:18;;;;;;;8.48;7.32;;;22.30;90.90;;;;;;5043450;28;20165;-92
2021/07/13 00:59:45;;;;;;;7.07;6.47;;;22.20;91.20;;;;;;5051511;28;20187;-92
2021/07/13 01:02:13;;;;;;;7.35;6.65;;;22.20;91.20;;;;;;5061380;28;20180;-92
2021/07/13 01:04:44;;;;;;;9.23;7.43;;;22.30;90.10;;;;;;5063604;28;20207;-92
2021/07/13 01:07:18;;;;;;;8.05;7.32;;;22.20;90.00;;;;;;5063459;28;20593;-93
2021/07/13 01:09:46;;;;;;;7.50;6.90;;;22.20;90.30;;;;;;5062832;28;20217;-91
2021/07/13 01:12:44;;;;;;;7.80;7.10;;;22.20;90.50;;;;;;5063258;28;20187;-92
2021/07/13 01:15:12;;;;;;;7.80;7.20;;;22.20;90.50;;;;;;5053217;28;20284;-92
2021/07/13 01:17:46;;;;;;;7.25;6.63;;;22.10;91.40;;;;;;5062791;28;20176;-93
2021/07/13 01:20:50;;;;;;;7.97;6.88;;;22.10;91.70;;;;;;5063475;28;20168;-91
2021/07/13 01:23:42;;;;;;;8.48;7.78;;;22.00;91.00;;;;;;5054543;28;20282;-92
2021/07/13 01:26:45;;;;;;;9.82;9.00;;;21.80;92.00;;;;;;5041545;28;20762;-91
2021/07/13 01:29:16;;;;;;;9.20;8.30;;;21.60;93.60;;;;;;5043401;28;20252;-91
2021/07/13 01:31:44;;;;;;;9.90;9.00;;;21.40;96.80;;;;;;5043785;28;20172;-91
2021/07/13 01:34:39;;;;;;;10.00;9.07;;;21.30;97.20;;;;;;5043006;28;20178;-91
2021/07/13 01:37:08;;;;;;;9.32;8.43;;;21.20;96.70;;;;;;5041539;28;20219;-92
2021/07/13 01:39:35;;;;;;;7.88;7.28;;;21.10;97.30;;;;;;5044207;28;20192;-92
2021/07/13 01:42:08;;;;;;;8.70;7.90;;;21.20;96.60;;;;;;5042867;28;20271;-92
2021/07/13 01:44:36;;;;;;;10.02;9.02;;;21.40;96.00;;;;;;5043385;28;20197;-92
2021/07/13 01:47:03;;;;;;;8.80;8.00;;;21.50;94.50;;;;;;5041693;28;20196;-92
2021/07/13 01:49:30;;;;;;;9.90;9.00;;;21.60;93.50;;;;;;5051142;28;20177;-93
2021/07/13 01:51:57;;;;;;;10.70;9.80;;;21.70;94.00;;;;;;5062627;28;20191;-92
2021/07/13 01:54:26;;;;;;;10.55;9.52;;;21.60;94.20;;;;;;5061772;28;20222;-92
2021/07/13 01:56:57;;;;;;;9.55;8.80;;;21.50;95.10;;;;;;5044826;28;20185;-92
2021/07/13 01:59:24;;;;;;;9.52;8.80;;;21.40;96.60;;;;;;5048469;28;20180;-91
2021/07/13 02:01:56;;;;;;;10.25;9.02;;;21.30;96.10;;;;;;5062028;28;20180;-92
2021/07/13 02:04:26;;;;;;;9.70;8.85;;;21.40;95.60;;;;;;5050151;28;20224;-92
2021/07/13 02:06:52;;;;;;;9.77;8.88;;;21.40;96.30;;;;;;5042141;28;20169;-92
2021/07/13 02:09:18;;;;;;;9.43;8.60;;;21.50;96.70;;;;;;5042570;28;20173;-92
2021/07/13 02:11:45;;;;;;;10.48;9.30;;;21.50;96.20;;;;;;5041801;28;20188;-92
2021/07/13 02:14:12;;;;;;;9.57;8.73;;;21.50;96.30;;;;;;5041982;28;20176;-92
2021/07/13 02:16:38;;;;;;;9.50;8.65;;;21.50;97.30;;;;;;5024276;28;20304;-92
2021/07/13 02:19:08;;;;;;;8.95;8.18;;;21.50;95.70;;;;;;5041159;28;20188;-92
2021/07/13 02:21:35;;;;;;;8.38;7.65;;;21.60;95.60;;;;;;5060487;28;20180;-91
2021/07/13 02:24:02;;;;;;;8.43;7.68;;;21.50;94.90;;;;;;5044344;28;20204;-93
2021/07/13 02:27:02;;;;;;;8.23;7.53;;;21.60;95.30;;;;;;5061263;28;20208;-93
2021/07/13 02:29:44;;;;;;;9.02;8.23;;;21.70;94.20;;;;;;5061439;28;20199;-92
2021/07/13 02:32:17;;;;;;;8.07;7.22;;;21.70;94.40;;;;;;5060375;28;20548;-92
2021/07/13 02:34:47;;;;;;;8.23;7.47;;;21.70;93.40;;;;;;5060661;28;20281;-92
2021/07/13 02:37:15;;;;;;;8.25;7.43;;;21.80;93.10;;;;;;5051682;28;20205;-92
2021/07/13 02:39:43;;;;;;;8.15;7.47;;;21.80;93.00;;;;;;5008306;28;20184;-93
2021/07/13 02:42:11;;;;;;;8.98;8.23;;;21.90;92.10;;;;;;5041943;28;20173;-92
2021/07/13 02:44:37;;;;;;;8.38;7.68;;;21.90;92.30;;;;;;5042320;28;20212;-92
2021/07/13 02:47:10;;;;;;;8.52;7.72;;;21.90;91.60;;;;;;5040319;28;20189;-92
2021/07/13 02:49:44;;;;;;;8.65;7.95;;;22.00;91.80;;;;;;5041590;28;20184;-92
2021/07/13 02:52:12;;;;;;;8.77;8.00;;;22.00;92.10;;;;;;5042300;28;20248;-92
2021/07/13 02:54:40;;;;;;;8.75;8.10;;;22.00;92.00;;;;;;5043966;28;20220;-92
2021/07/13 02:57:07;;;;;;;8.32;7.57;;;22.00;91.80;;;;;;5061774;28;20176;-92
2021/07/13 02:59:34;;;;;;;7.95;7.35;;;21.90;92.30;;;;;;5060381;28;20176;-92
2021/07/13 03:02:00;;;;;;;8.50;7.90;;;21.90;92.80;;;;;;5061239;28;20177;-91
2021/07/13 03:04:26;;;;;;;9.23;8.52;;;21.90;92.20;;;;;;5043091;28;20207;-91
2021/07/13 03:06:53;;;;;;;9.82;8.93;;;21.80;92.60;;;;;;5061673;28;20181;-91
2021/07/13 03:09:20;;;;;;;9.07;8.27;;;21.60;93.50;;;;;;5060436;28;20176;-92
2021/07/13 03:11:46;;;;;;;7.53;6.97;;;21.50;93.90;;;;;;5043278;28;20218;-92
2021/07/13 03:14:14;;;;;;;7.97;7.38;;;21.70;93.30;;;;;;5061010;28;20176;-92
2021/07/13 03:16:41;;;;;;;7.28;6.78;;;21.70;92.60;;;;;;5059759;28;20173;-92
2021/07/13 03:19:07;;;;;;;8.57;7.88;;;21.70;92.50;;;;;;5060867;28;20177;-92
2021/07/13 03:21:36;;;;;;;9.75;8.90;;;21.80;93.00;;;;;;5057148;28;20183;-92
2021/07/13 03:24:04;;;;;;;8.82;8.02;;;21.80;93.60;;;;;;5057353;28;20188;-92
2021/07/13 03:26:39;;;;;;;13.75;8.60;;;21.70;93.80;;;;;;5024161;28;20207;-92
2021/07/13 03:29:06;;;;;;;10.15;9.23;;;21.60;93.90;;;;;;5039708;28;20173;-91
2021/07/13 03:31:33;;;;;;;9.20;8.43;;;21.50;94.50;;;;;;5040739;28;20208;-92
2021/07/13 03:34:01;;;;;;;9.55;8.75;;;21.40;95.00;;;;;;5040861;28;20184;-92
2021/07/13 03:36:29;;;;;;;9.13;8.35;;;21.30;95.60;;;;;;5038249;28;20184;-92
2021/07/13 03:38:55;;;;;;;9.90;9.10;;;21.20;96.10;;;;;;5038964;28;20189;-91
2021/07/13 03:41:21;;;;;;;9.38;8.68;;;21.20;96.00;;;;;;5039068;28;20192;-92
2021/07/13 03:43:47;;;;;;;10.10;9.30;;;21.20;96.30;;;;;;5040041;28;20781;-92
2021/07/13 03:46:13;;;;;;;9.70;8.90;;;21.20;96.20;;;;;;5041062;28;20241;-92
2021/07/13 03:48:40;;;;;;;10.73;9.70;;;21.20;96.30;;;;;;5040534;28;20212;-92
2021/07/13 03:51:19;;;;;;;10.48;9.68;;;21.10;96.70;;;;;;5040826;28;20668;-92
2021/07/13 03:53:56;;;;;;;10.98;10.00;;;21.00;96.60;;;;;;5049205;28;20209;-92
2021/07/13 03:56:27;;;;;;;10.63;9.73;;;21.00;97.10;;;;;;5064658;28;20199;-92
2021/07/13 03:59:09;;;;;;;10.25;9.40;;;20.90;97.80;;;;;;5077035;28;20201;-91
2021/07/13 04:01:35;;;;;;;10.82;9.90;;;21.00;96.60;;;;;;5079182;28;20264;-92
2021/07/13 04:04:01;;;;;;;11.20;10.20;;;21.00;96.30;;;;;;5079392;28;20203;-92
2021/07/13 04:06:27;;;;;;;9.75;9.05;;;21.00;96.80;;;;;;5079494;28;20175;-92
2021/07/13 04:08:54;;;;;;;10.90;10.00;;;21.10;96.30;;;;;;5059743;28;20198;-92
2021/07/13 04:11:20;;;;;;;11.45;10.55;;;21.10;96.30;;;;;;5056417;28;20185;-92
2021/07/13 04:13:46;;;;;;;10.15;9.23;;;21.10;96.60;;;;;;5062616;28;20348;-92
2021/07/13 04:16:12;;;;;;;10.43;9.63;;;21.20;96.00;;;;;;5044061;28;20718;-91
2021/07/13 04:18:38;;;;;;;11.48;10.43;;;21.20;96.10;;;;;;5061476;28;20202;-92
2021/07/13 04:21:06;;;;;;;9.77;8.88;;;21.20;95.70;;;;;;5061222;28;20184;-92
2021/07/13 04:23:32;;;;;;;10.88;9.85;;;21.10;95.70;;;;;;5060854;28;20180;-93
2021/07/13 04:25:57;;;;;;;11.30;10.20;;;21.20;96.00;;;;;;5052021;28;20263;-92
2021/07/13 04:28:23;;;;;;;12.80;11.50;;;21.10;95.90;;;;;;5057816;28;20200;-92
2021/07/13 04:30:49;;;;;;;13.00;11.77;;;21.00;96.50;;;;;;5058351;28;20175;-91
2021/07/13 04:33:14;;;;;;;12.25;11.05;;;20.90;97.00;;;;;;5058717;28;20289;-93
2021/07/13 04:35:40;;;;;;;11.50;10.60;;;20.90;97.30;;;;;;5057412;28;20283;-92
2021/07/13 04:38:06;;;;;;;11.40;10.45;;;20.80;97.70;;;;;;5043023;28;20542;-92
2021/07/13 04:40:32;;;;;;;11.68;10.70;;;20.80;97.30;;;;;;5041205;28;20186;-92
2021/07/13 04:42:58;;;;;;;12.15;11.15;;;20.90;97.80;;;;;;5060280;28;20178;-92
2021/07/13 04:45:24;;;;;;;11.43;10.50;;;20.70;97.90;;;;;;5040670;28;20711;-92
2021/07/13 04:47:49;;;;;;;11.57;10.57;;;20.70;99.60;;;;;;5039549;28;20192;-93
2021/07/13 04:50:15;;;;;;;10.25;9.45;;;20.70;99.00;;;;;;5040652;28;20192;-91
2021/07/13 04:52:41;;;;;;;11.43;10.52;;;20.70;99.20;;;;;;5043014;28;20188;-92
2021/07/13 04:55:08;;;;;;;11.00;10.05;;;20.70;98.60;;;;;;5059029;28;20234;-92
2021/07/13 04:57:33;;;;;;;11.02;10.05;;;20.70;98.80;;;;;;5060149;28;20187;-91
2021/07/13 04:59:59;;;;;;;12.40;10.93;;;20.80;99.00;;;;;;5060589;28;20180;-92
2021/07/13 05:02:25;;;;;;;11.10;10.10;;;20.80;98.00;;;;;;5058488;28;20180;-91
2021/07/13 05:04:51;;;;;;;11.98;10.98;;;20.80;98.50;;;;;;5058462;28;20199;-92
2021/07/13 05:07:17;;;;;;;11.15;10.15;;;20.70;98.90;;;;;;5059571;28;20208;-91
2021/07/13 05:09:42;;;;;;;10.90;10.00;;;20.80;98.40;;;;;;5060996;28;20189;-92
2021/07/13 05:12:08;;;;;;;11.10;10.20;;;20.80;98.90;;;;;;5058348;28;20195;-92
2021/07/13 05:14:35;;;;;;;10.50;9.07;;;20.70;99.30;;;;;;5058961;28;20249;-92
2021/07/13 05:17:03;;;;;;;10.48;9.70;;;20.80;98.60;;;;;;5060307;28;20180;-91
2021/07/13 05:19:31;;;;;;;9.30;8.50;;;20.90;98.30;;;;;;5060178;28;20573;-92
2021/07/13 05:22:01;;;;;;;9.75;9.00;;;20.90;98.20;;;;;;5046892;28;20195;-92
2021/07/13 05:24:27;;;;;;;9.70;8.90;;;21.00;97.70;;;;;;5040329;28;20208;-92
2021/07/13 05:26:53;;;;;;;9.05;8.38;;;21.10;96.80;;;;;;5038531;28;20184;-92
2021/07/13 05:29:19;;;;;;;9.57;8.88;;;21.00;96.60;;;;;;5040898;28;20278;-92
2021/07/13 05:31:45;;;;;;;9.73;8.93;;;21.00;97.20;;;;;;5038744;28;20235;-92
2021/07/13 05:34:11;;;;;;;9.13;8.35;;;21.00;97.50;;;;;;5039974;28;20185;-92
2021/07/13 05:36:37;;;;;;;8.63;7.93;;;21.10;97.40;;;;;;5058689;28;20798;-92
2021/07/13 05:39:06;;;;;;;9.30;8.60;;;21.10;96.10;;;;;;5059054;28;20233;-92
2021/07/13 05:41:32;;;;;;;9.40;8.73;;;21.10;95.00;;;;;;5059712;28;20192;-92
2021/07/13 05:43:59;;;;;;;9.35;8.52;;;21.20;95.30;;;;;;5060373;28;20674;-92
2021/07/13 05:46:25;;;;;;;8.90;8.10;;;21.30;95.40;;;;;;5059833;28;20215;-91
2021/07/13 05:48:51;;;;;;;8.55;7.85;;;21.30;94.50;;;;;;5053953;28;20695;-91
2021/07/13 05:51:17;;;;;;;9.25;8.40;;;21.40;95.20;;;;;;5058128;28;20191;-91
2021/07/13 05:53:43;;;;;;;8.57;7.82;;;21.30;94.70;;;;;;5040773;28;20184;-91
2021/07/13 05:56:10;;;;;;;8.50;7.90;;;21.20;95.50;;;;;;5058697;28;20235;-91
2021/07/13 05:58:36;;;;;;;10.60;9.50;;;21.20;95.50;;;;;;5058839;28;20279;-91
2021/07/13 06:01:04;;;;;;;9.35;8.65;;;21.20;95.20;;;;;;5056768;28;20175;-91
2021/07/13 06:03:29;;;;;;;9.70;9.00;;;21.00;97.00;;;;;;5043538;28;20580;-91
2021/07/13 06:05:55;;;;;;;10.10;8.18;;;20.90;98.20;;;;;;5037326;28;20197;-91
2021/07/13 06:08:21;;;;;;;10.10;9.05;;;20.60;98.90;;;;;;5037892;28;20204;-91
2021/07/13 06:10:46;;;;;;;10.48;9.50;;;20.50;99.60;;;;;;5036721;28;20212;-91
2021/07/13 06:13:12;;;;;;;10.13;9.20;;;20.40;99.90;;;;;;5041978;28;20531;-91
2021/07/13 06:15:38;;;;;;;8.75;8.05;;;20.30;99.90;;;;;;5050626;28;20208;-92
2021/07/13 06:18:04;;;;;;;9.07;8.38;;;20.40;99.70;;;;;;5055155;28;20255;-92
2021/07/13 06:20:30;;;;;;;10.60;9.68;;;20.30;99.90;;;;;;5063941;28;20172;-92
2021/07/13 06:22:55;;;;;;;10.35;9.50;;;20.30;99.90;;;;;;5065002;28;20204;-92
2021/07/13 06:25:21;;;;;;;9.70;8.85;;;20.30;99.90;;;;;;5057261;28;20219;-93
2021/07/13 06:27:48;;;;;;;9.55;8.85;;;20.20;99.90;;;;;;5052899;28;20176;-91
2021/07/13 06:30:15;;;;;;;10.02;9.23;;;20.20;99.90;;;;;;5050875;28;20181;-91
2021/07/13 06:32:41;;;;;;;10.63;9.68;;;20.10;99.90;;;;;;5061118;28;20188;-91
2021/07/13 06:48:49;;;;;;;5.80;5.30;;;19.50;99.90;;;;;;5046566;23;20258;-90
2021/07/13 06:51:15;;;;;;;5.40;4.90;;;19.40;99.90;;;;;;5032127;28;20223;-90
2021/07/13 06:53:40;;;;;;;6.40;5.80;;;19.40;99.90;;;;;;5030570;28;20206;-91
2021/07/13 06:56:06;;;;;;;5.57;4.35;;;19.20;99.90;;;;;;5027684;28;20211;-91
2021/07/13 06:58:32;;;;;;;5.97;4.40;;;19.00;99.90;;;;;;5044614;28;20209;-91
2021/07/13 07:00:57;;;;;;;5.33;4.23;;;18.80;99.90;;;;;;5051768;28;20204;-90
2021/07/13 07:03:23;;;;;;;4.40;4.10;;;18.70;99.90;;;;;;5052008;28;20224;-90
2021/07/13 07:05:49;;;;;;;4.60;4.00;;;18.70;99.90;;;;;;5033875;28;20276;-89
2021/07/13 07:08:15;;;;;;;3.97;3.67;;;18.70;99.90;;;;;;5049385;28;20184;-90
2021/07/13 07:10:40;;;;;;;3.70;3.40;;;18.70;99.90;;;;;;5052039;28;20188;-90
2021/07/13 07:13:06;;;;;;;4.03;3.33;;;18.80;99.90;;;;;;5053781;28;20188;-91
2021/07/13 07:15:41;;;;;;;4.38;3.60;;;18.70;99.90;;;;;;5037731;28;20309;-90
2021/07/13 07:18:07;;;;;;;4.20;3.53;;;18.70;99.90;;;;;;5053283;28;20163;-91
2021/07/13 07:20:34;;;;;;;4.13;3.70;;;18.70;99.90;;;;;;5034086;28;20857;-90
2021/07/13 07:22:59;;;;;;;4.00;3.70;;;18.70;99.90;;;;;;5034812;28;20206;-89
2021/07/13 07:25:30;;;;;;;4.60;3.77;;;18.60;99.90;;;;;;5033519;28;20200;-90
2021/07/13 07:27:58;;;;;;;3.50;3.20;;;18.50;99.90;;;;;;5047441;28;20708;-91
2021/07/13 07:30:25;;;;;;;3.20;3.00;;;18.60;99.90;;;;;;5054805;28;20208;-90
2021/07/13 07:32:54;;;;;;;3.03;2.83;;;18.60;99.90;;;;;;5051669;28;20178;-90
2021/07/13 07:35:36;;;;;;;3.73;3.40;;;18.50;99.90;;;;;;5041747;28;20212;-89
2021/07/13 07:38:40;;;;;;;3.50;3.20;;;18.50;99.90;;;;;;5045702;28;20200;-90
2021/07/13 07:41:14;;;;;;;3.10;2.90;;;18.60;99.90;;;;;;5046205;28;20174;-91
2021/07/13 07:44:25;;;;;;;4.57;3.17;;;18.60;99.90;;;;;;5047998;28;20646;-91
2021/07/13 07:46:54;;;;;;;3.80;3.35;;;18.50;99.90;;;;;;5048348;28;20671;-91
2021/07/13 07:49:25;;;;;;;3.10;2.77;;;18.50;99.90;;;;;;5033111;28;20338;-90
2021/07/13 07:51:54;;;;;;;4.30;2.60;;;18.50;99.90;;;;;;5033930;28;20184;-90
2021/07/13 07:54:19;;;;;;;3.07;2.67;;;18.50;99.90;;;;;;5047951;28;20241;-91
2021/07/13 07:56:45;;;;;;;2.57;2.37;;;18.40;99.90;;;;;;5046959;28;20182;-90
2021/07/13 07:59:11;;;;;;;2.30;1.70;;;18.30;99.90;;;;;;5043069;28;20188;-89
2021/07/13 08:01:36;;;;;;;3.40;1.70;;;18.10;99.40;;;;;;5018213;28;20173;-90
2021/07/13 08:04:02;;;;;;;3.43;1.70;;;18.00;99.90;;;;;;5030725;28;20188;-90
2021/07/13 08:06:28;;;;;;;1.53;1.43;;;17.90;99.90;;;;;;5045330;28;20268;-90
2021/07/13 08:09:20;;;;;;;1.40;1.40;;;17.80;99.90;;;;;;5043312;28;20271;-91
2021/07/13 08:11:45;;;;;;;1.53;1.43;;;17.60;99.90;;;;;;5043209;28;20200;-90
2021/07/13 08:14:11;;;;;;;1.53;1.30;;;17.50;99.90;;;;;;5050721;28;20176;-89
2021/07/13 08:16:37;;;;;;;2.07;1.47;;;17.40;99.90;;;;;;5038732;28;20174;-89
2021/07/13 08:19:04;;;;;;;6.17;1.40;;;17.40;99.90;;;;;;5033334;28;20664;-90
2021/07/13 08:21:31;;;;;;;1.57;1.40;;;17.30;99.90;;;;;;5053709;28;20193;-90
2021/07/13 08:23:58;;;;;;;1.47;1.37;;;17.20;99.90;;;;;;5054270;28;20191;-89
2021/07/13 08:26:27;;;;;;;2.20;1.50;;;17.10;99.90;;;;;;5054432;28;20215;-90
2021/07/13 08:28:54;;;;;;;1.30;1.20;;;17.10;99.90;;;;;;5044963;28;20425;-89
2021/07/13 08:31:20;;;;;;;1.47;1.37;;;17.10;99.90;;;;;;5049944;28;20267;-89
2021/07/13 08:33:49;;;;;;;1.43;1.40;;;17.00;99.90;;;;;;5045815;28;20249;-90
2021/07/13 08:36:14;;;;;;;1.57;1.40;;;16.90;99.90;;;;;;5042949;28;20205;-90
2021/07/13 08:38:40;;;;;;;1.40;1.10;;;16.90;99.90;;;;;;5047196;28;20210;-89
2021/07/13 08:41:06;;;;;;;1.40;1.13;;;16.80;99.90;;;;;;5046431;28;20557;-88
2021/07/13 08:43:32;;;;;;;1.67;1.40;;;16.90;99.90;;;;;;5050358;28;20189;-89
2021/07/13 08:45:58;;;;;;;1.47;1.40;;;16.90;99.90;;;;;;5043651;28;20208;-89
2021/07/13 08:48:25;;;;;;;3.07;1.47;;;16.80;99.90;;;;;;5052938;28;20211;-89
2021/07/13 08:50:59;;;;;;;1.63;1.53;;;16.70;99.90;;;;;;5042831;28;20210;-89
2021/07/13 08:53:25;;;;;;;1.67;1.53;;;16.60;99.90;;;;;;5048997;28;20185;-90
2021/07/13 08:55:55;;;;;;;1.87;1.67;;;16.70;99.90;;;;;;5049796;28;20218;-90
2021/07/13 08:58:22;;;;;;;1.70;1.60;;;16.70;99.90;;;;;;5028995;28;20176;-88
2021/07/13 09:00:49;;;;;;;3.80;1.80;;;16.60;99.90;;;;;;5040814;28;20259;-89
2021/07/13 09:03:20;;;;;;;1.47;1.40;;;16.70;99.90;;;;;;5049481;28;20211;-89
2021/07/13 09:05:48;;;;;;;2.03;1.87;;;16.60;99.90;;;;;;5045585;28;20693;-89
2021/07/13 09:08:32;;;;;;;2.53;1.73;;;16.40;99.90;;;;;;5049656;28;20239;-90
2021/07/13 09:11:02;;;;;;;1.93;1.70;;;16.40;99.90;;;;;;5046908;28;20645;-90
2021/07/13 09:13:52;;;;;;;2.57;1.47;;;16.40;99.90;;;;;;5047178;28;20185;-90
2021/07/13 09:16:30;;;;;;;6.87;1.50;;;16.30;99.90;;;;;;5048855;28;20288;-91
2021/07/13 09:18:57;;;;;;;2.00;1.90;;;16.40;99.90;;;;;;5048697;28;20242;-89
2021/07/13 09:21:35;;;;;;;1.70;1.60;;;16.40;99.90;;;;;;5049185;28;20188;-90
2021/07/13 09:24:09;;;;;;;1.63;1.53;;;16.30;99.90;;;;;;5055932;28;20184;-89
2021/07/13 09:26:56;;;;;;;1.77;1.67;;;16.20;99.90;;;;;;5044277;28;20180;-88
2021/07/13 09:29:32;;;;;;;2.40;1.80;;;16.30;99.90;;;;;;5043177;28;20207;-89
2021/07/13 09:32:20;;;;;;;1.83;1.70;;;16.20;99.90;;;;;;5044903;28;20196;-88
2021/07/13 09:34:50;;;;;;;1.80;1.50;;;16.20;99.90;;;;;;5047271;28;20212;-89
2021/07/13 09:37:23;;;;;;;1.60;1.50;;;16.20;99.90;;;;;;5047459;28;20196;-89
2021/07/13 09:40:04;;;;;;;2.63;1.60;;;16.20;99.90;;;;;;5046029;28;20184;-90
2021/07/13 09:42:48;;;;;;;1.60;1.50;;;16.20;99.90;;;;;;5044473;28;20186;-89
2021/07/13 09:45:32;;;;;;;1.67;1.47;;;16.20;99.90;;;;;;5048613;28;20238;-90
2021/07/13 09:48:12;;;;;;;1.60;1.30;;;16.20;99.90;;;;;;5048335;28;20252;-91
2021/07/13 09:50:46;;;;;;;1.30;1.30;;;16.20;99.90;;;;;;5048026;28;20185;-90
2021/07/13 09:53:22;;;;;;;2.13;1.87;;;16.20;99.90;;;;;;5043124;28;20182;-90
2021/07/13 09:55:51;;;;;;;1.60;1.50;;;16.30;99.90;;;;;;5046666;28;20235;-90
2021/07/13 09:58:22;;;;;;;1.90;1.40;;;16.30;99.90;;;;;;5047261;28;20193;-92
2021/07/13 10:01:00;;;;;;;1.80;1.70;;;16.30;99.90;;;;;;5042166;28;20256;-91
2021/07/13 10:03:29;;;;;;;1.63;1.53;;;16.30;99.90;;;;;;5045121;28;20180;-90
2021/07/13 10:05:57;;;;;;;2.90;1.40;;;16.30;99.90;;;;;;5051937;28;20207;-88
2021/07/13 10:08:35;;;;;;;1.30;1.30;;;16.20;99.90;;;;;;5054485;28;20165;-89
2021/07/13 10:18:20;;;;;;;1.47;1.30;;;16.20;99.90;;;;;;4972667;28;20222;-89
2021/07/13 10:25:01;;;;;;;;;;;;;;;;;;;;;
2021/07/13 10:35:29;;;;;;;1.20;1.20;;;16.10;99.90;;;;;;4936844;28;20252;-89
2021/07/13 10:38:21;;;;;;;1.27;1.20;;;16.10;99.90;;;;;;4899580;29;20772;-89
2021/07/13 10:40:51;;;;;;;1.83;1.40;;;16.10;99.90;;;;;;4910762;29;20188;-89
2021/07/13 10:43:47;;;;;;;1.57;1.47;;;16.10;99.90;;;;;;4994493;28;20240;-89
2021/07/13 10:46:13;;;;;;;1.40;1.30;;;16.00;99.90;;;;;;5013239;28;20203;-89
2021/07/13 10:48:39;;;;;;;1.60;1.50;;;16.00;99.90;;;;;;5013878;28;20216;-89
2021/07/13 10:51:12;;;;;;;1.30;1.30;;;16.00;99.90;;;;;;5016478;28;20201;-89
2021/07/13 10:53:42;;;;;;;1.67;1.40;;;16.00;99.90;;;;;;5016934;28;20191;-89
2021/07/13 10:56:17;;;;;;;1.50;1.40;;;16.10;99.90;;;;;;5015315;28;20257;-88
2021/07/13 10:58:49;;;;;;;1.30;1.30;;;16.10;99.90;;;;;;5018863;28;20231;-89
2021/07/13 11:01:25;;;;;;;1.50;1.40;;;16.00;99.90;;;;;;5016425;28;20197;-89
2021/07/13 11:04:02;;;;;;;1.27;1.27;;;16.00;99.90;;;;;;5014611;28;20255;-90
2021/07/13 11:06:53;;;;;;;1.57;1.30;;;16.10;99.90;;;;;;5012656;28;20213;-89
2021/07/13 11:09:32;;;;;;;1.57;1.47;;;16.20;99.90;;;;;;5015646;28;20186;-88
2021/07/13 11:12:17;;;;;;;1.47;1.20;;;16.20;99.90;;;;;;5019982;28;20196;-90
2021/07/13 11:19:51;;;;;;;1.47;1.40;;;16.10;99.90;;;;;;5045912;28;20221;-90
2021/07/13 11:22:18;;;;;;;1.47;1.37;;;16.20;99.90;;;;;;5054369;28;20204;-89
2021/07/13 11:24:44;;;;;;;2.20;1.40;;;16.10;99.90;;;;;;5071200;22;20228;-93
2021/07/13 11:27:10;;;;;;;1.30;1.30;;;16.20;99.90;;;;;;5032070;28;20213;-93
2021/07/13 11:29:36;;;;;;;1.53;1.43;;;16.20;99.90;;;;;;5052787;28;20246;-92
2021/07/13 11:32:04;;;;;;;1.30;1.30;;;16.30;99.90;;;;;;5055327;28;20245;-93
2021/07/13 11:34:37;;;;;;;1.70;1.60;;;16.30;99.90;;;;;;5028062;28;20182;-92
2021/07/13 11:37:04;;;;;;;1.90;1.80;;;16.40;99.90;;;;;;5030936;28;20247;-92
2021/07/13 11:39:33;;;;;;;2.43;1.70;;;16.40;99.90;;;;;;5041236;28;20201;-92
2021/07/13 11:42:08;;;;;;;1.70;1.60;;;16.40;99.90;;;;;;5051553;28;20235;-92
2021/07/13 11:44:38;;;;;;;1.80;1.70;;;16.50;99.90;;;;;;5022429;28;20188;-93
2021/07/13 11:47:09;;;;;;;1.60;1.50;;;16.50;99.90;;;;;;5027154;28;20188;-93
2021/07/13 11:49:35;;;;;;;1.80;1.70;;;16.40;99.90;;;;;;5053699;28;20206;-92
2021/07/13 11:52:03;;;;;;;1.60;1.50;;;16.40;99.90;;;;;;5025974;28;20189;-92
2021/07/13 11:54:34;;;;;;;1.80;1.70;;;16.40;99.90;;;;;;5035443;28;20271;-92
2021/07/13 11:57:02;;;;;;;2.00;1.60;;;16.40;99.90;;;;;;5034393;28;20191;-92
2021/07/13 11:59:30;;;;;;;1.80;1.70;;;16.40;99.90;;;;;;5027802;28;20214;-91
2021/07/13 12:01:58;;;;;;;2.17;1.97;;;16.40;99.90;;;;;;5042198;28;20189;-92
2021/07/13 12:04:25;;;;;;;2.03;1.60;;;16.40;99.90;;;;;;5046723;28;20216;-92
2021/07/13 12:06:56;;;;;;;2.13;1.93;;;16.40;99.90;;;;;;5033248;28;20305;-91
2021/07/13 12:09:33;;;;;;;2.00;1.90;;;16.50;99.90;;;;;;5047821;28;20437;-92
2021/07/13 12:12:19;;;;;;;1.90;1.80;;;16.60;99.90;;;;;;5043261;28;20244;-92
2021/07/13 12:14:51;;;;;;;2.07;1.80;;;16.80;99.90;;;;;;5034539;28;20215;-90
2021/07/13 12:17:20;;;;;;;2.03;1.93;;;16.60;99.90;;;;;;5053335;28;20201;-92
2021/07/13 12:19:47;;;;;;;1.80;1.70;;;16.60;99.90;;;;;;5021215;28;20172;-92
2021/07/13 12:22:20;;;;;;;1.80;1.70;;;16.60;99.90;;;;;;5043470;28;20217;-92
2021/07/13 12:24:47;;;;;;;1.80;1.70;;;16.60;99.90;;;;;;5042493;28;20196;-93
2021/07/13 12:27:18;;;;;;;2.00;1.80;;;16.60;99.90;;;;;;5041171;28;20188;-94
2021/07/13 12:29:50;;;;;;;1.97;1.87;;;16.60;99.90;;;;;;5046512;28;20203;-90
2021/07/13 12:32:21;;;;;;;2.00;1.77;;;16.70;99.90;;;;;;5042361;28;20278;-92
2021/07/13 12:34:49;;;;;;;1.73;1.63;;;16.80;99.90;;;;;;5046203;28;20219;-91
2021/07/13 12:37:32;;;;;;;2.00;1.90;;;16.80;99.90;;;;;;5037298;28;20277;-92
2021/07/13 12:40:00;;;;;;;2.17;1.97;;;16.90;99.90;;;;;;5008492;28;20728;-90
2021/07/13 12:42:30;;;;;;;2.00;1.80;;;16.80;99.90;;;;;;5036048;28;20249;-91
2021/07/13 12:45:13;;;;;;;1.67;1.60;;;16.80;99.10;;;;;;5048865;28;20267;-94
2021/07/13 12:47:47;;;;;;;1.80;1.70;;;16.90;99.60;;;;;;5045376;28;20236;-93
2021/07/13 12:50:16;;;;;;;1.90;1.80;;;16.90;99.90;;;;;;5027791;28;20203;-91
2021/07/13 12:52:52;;;;;;;2.53;1.83;;;16.90;99.80;;;;;;5032678;28;20196;-91
2021/07/13 12:55:39;;;;;;;1.90;1.80;;;16.90;99.90;;;;;;5022847;28;20227;-93
2021/07/13 12:58:23;;;;;;;2.13;1.90;;;16.80;99.70;;;;;;5057153;28;20224;-92
2021/07/13 13:00:51;;;;;;;2.07;1.90;;;16.90;99.90;;;;;;5047644;28;20201;-91
2021/07/13 13:03:35;;;;;;;2.47;2.03;;;17.00;99.90;;;;;;5021070;28;20187;-93
2021/07/13 13:06:06;;;;;;;3.43;2.00;;;17.00;99.90;;;;;;5052982;28;20194;-93
2021/07/13 13:08:32;;;;;;;2.10;1.90;;;17.00;99.90;;;;;;5015338;28;20215;-93
2021/07/13 13:11:06;;;;;;;2.53;2.00;;;17.00;99.90;;;;;;5038969;28;20190;-93
2021/07/13 13:13:37;;;;;;;2.30;1.90;;;17.10;99.90;;;;;;5028301;28;20624;-93
2021/07/13 13:16:21;;;;;;;2.83;2.40;;;17.00;99.90;;;;;;5018172;28;20304;-93
2021/07/13 13:18:47;;;;;;;2.13;1.90;;;17.10;99.50;;;;;;5027474;28;20206;-92
2021/07/13 13:21:13;;;;;;;3.17;2.00;;;17.20;99.60;;;;;;5014830;28;20195;-91
2021/07/13 13:23:39;;;;;;;2.27;1.97;;;17.10;99.00;;;;;;5008373;28;20212;-91
2021/07/13 13:26:05;;;;;;;2.13;2.00;;;17.10;99.00;;;;;;5025119;28;20212;-91
2021/07/13 13:28:31;;;;;;;2.20;2.00;;;17.10;99.80;;;;;;5012142;28;20217;-93
2021/07/13 13:30:57;;;;;;;2.27;2.07;;;17.00;99.90;;;;;;5032304;28;20288;-93
2021/07/13 13:33:24;;;;;;;2.47;2.10;;;17.20;99.10;;;;;;5029075;28;20190;-92
2021/07/13 13:38:40;;;;;;;1.80;1.70;;;17.30;99.70;;;;;;5018511;28;20215;-91
2021/07/13 13:41:06;;;;;;;2.60;2.20;;;17.40;98.70;;;;;;5031851;28;20197;-93